createdAt,value
2019-01-04T00:02:04.717Z,13.32
2019-01-04T00:04:35.114Z,12.95
2019-01-04T00:07:05.489Z,14.43
2019-01-04T00:09:36.021Z,14.15
2019-01-04T00:12:06.408Z,14.43
2019-01-04T00:14:36.826Z,13.08
2019-01-04T00:17:07.242Z,14.13
2019-01-04T00:19:37.654Z,12.82
2019-01-04T00:22:08.062Z,12.25
2019-01-04T00:24:38.456Z,13.10
2019-01-04T00:27:08.885Z,13.00
2019-01-04T00:29:39.295Z,14.28
2019-01-04T00:32:09.699Z,11.78
2019-01-04T00:34:40.198Z,12.37
2019-01-04T00:37:10.574Z,14.87
2019-01-04T00:39:40.982Z,15.20
2019-01-04T00:42:11.805Z,12.75
2019-01-04T00:44:42.200Z,12.63
2019-01-04T00:47:12.641Z,10.98
2019-01-04T00:49:43.048Z,9.65
2019-01-04T00:52:13.448Z,9.35
2019-01-04T00:54:43.842Z,9.98
2019-01-04T00:57:43.428Z,8.83
2019-01-04T01:00:58.729Z,8.38
2019-01-04T01:04:22.242Z,8.83
2019-01-04T01:07:45.910Z,9.95
2019-01-04T01:10:45.584Z,9.75
2019-01-04T01:13:52.773Z,10.72
2019-01-04T01:17:10.458Z,10.28
2019-01-04T01:20:49.239Z,11.73
2019-01-04T01:24:25.018Z,10.28
2019-01-04T01:27:47.477Z,11.00
2019-01-04T01:31:14.810Z,9.75
2019-01-04T01:34:23.713Z,11.45
2019-01-04T01:37:56.389Z,12.35
2019-01-04T01:41:38.267Z,12.10
2019-01-04T01:45:17.231Z,10.60
2019-01-04T01:48:06.293Z,9.30
2019-01-04T01:51:26.827Z,8.90
2019-01-04T01:53:57.226Z,7.83
2019-01-04T01:56:27.732Z,8.28
2019-01-04T01:58:58.188Z,8.35
2019-01-04T02:01:28.550Z,7.40
2019-01-04T02:03:58.937Z,8.73
2019-01-04T02:06:29.333Z,9.83
2019-01-04T02:08:59.786Z,9.90
2019-01-04T02:11:30.176Z,10.68
2019-01-04T02:14:00.575Z,9.55
2019-01-04T02:16:30.957Z,9.50
2019-01-04T02:19:01.369Z,8.68
2019-01-04T02:21:31.759Z,11.10
2019-01-04T02:24:02.162Z,10.98
2019-01-04T02:26:32.549Z,11.83
2019-01-04T02:29:02.948Z,12.07
2019-01-04T02:31:33.345Z,11.22
2019-01-04T02:34:03.727Z,9.35
2019-01-04T02:36:34.113Z,9.90
2019-01-04T02:39:05.425Z,11.70
2019-01-04T02:41:35.783Z,9.78
2019-01-04T02:44:06.188Z,10.43
2019-01-04T02:46:36.613Z,10.30
2019-01-04T02:49:06.280Z,10.08
2019-01-04T02:51:36.676Z,10.05
2019-01-04T02:54:07.090Z,10.65
2019-01-04T02:56:37.498Z,10.55
2019-01-04T02:59:07.894Z,10.38
2019-01-04T03:01:38.296Z,10.10
2019-01-04T03:04:08.722Z,12.10
2019-01-04T03:06:39.089Z,10.63
2019-01-04T03:09:09.464Z,11.40
2019-01-04T03:11:39.850Z,10.75
2019-01-04T03:14:10.287Z,10.05
2019-01-04T03:16:40.712Z,10.85
2019-01-04T03:19:11.161Z,11.80
2019-01-04T03:21:41.578Z,10.70
2019-01-04T03:24:11.991Z,11.70
2019-01-04T03:26:42.394Z,9.38
2019-01-04T03:29:12.765Z,11.10
2019-01-04T03:31:43.148Z,9.83
2019-01-04T03:34:13.546Z,11.65
2019-01-04T03:36:43.932Z,10.08
2019-01-04T03:39:14.335Z,10.55
2019-01-04T03:41:44.739Z,9.05
2019-01-04T03:44:15.113Z,10.50
2019-01-04T03:46:45.498Z,9.23
2019-01-04T03:49:15.878Z,10.60
2019-01-04T03:51:46.314Z,8.30
2019-01-04T03:54:16.714Z,8.63
2019-01-04T03:56:47.118Z,10.45
2019-01-04T03:59:17.521Z,9.85
2019-01-04T04:01:47.893Z,8.70
2019-01-04T04:04:18.337Z,10.18
2019-01-04T04:06:48.700Z,9.68
2019-01-04T04:09:20.185Z,9.33
2019-01-04T04:11:50.545Z,10.00
2019-01-04T04:14:20.965Z,9.43
2019-01-04T04:16:51.401Z,9.45
2019-01-04T04:19:21.791Z,9.80
2019-01-04T04:21:52.217Z,11.28
2019-01-04T04:24:22.693Z,11.18
2019-01-04T04:26:53.227Z,10.80
2019-01-04T04:29:23.629Z,12.18
2019-01-04T04:31:54.009Z,13.75
2019-01-04T04:34:24.410Z,10.60
2019-01-04T04:36:54.802Z,11.28
2019-01-04T04:39:25.196Z,12.37
2019-01-04T04:41:55.578Z,11.40
2019-01-04T04:44:25.968Z,12.33
2019-01-04T04:46:56.382Z,12.07
2019-01-04T04:49:26.762Z,13.50
2019-01-04T04:51:57.211Z,12.95
2019-01-04T04:54:27.598Z,11.33
2019-01-04T04:56:58.053Z,11.78
2019-01-04T04:59:28.509Z,11.10
2019-01-04T05:01:58.918Z,11.63
2019-01-04T05:04:29.410Z,12.07
2019-01-04T05:06:59.902Z,12.45
2019-01-04T05:09:30.312Z,12.78
2019-01-04T05:12:00.786Z,12.55
2019-01-04T05:14:31.205Z,13.50
2019-01-04T05:17:01.626Z,12.53
2019-01-04T05:19:40.328Z,14.33
2019-01-04T05:22:10.709Z,13.50
2019-01-04T05:24:41.088Z,12.43
2019-01-04T05:27:11.477Z,13.68
2019-01-04T05:29:41.886Z,12.95
2019-01-04T05:32:12.318Z,13.10
2019-01-04T05:34:42.722Z,13.15
2019-01-04T05:37:13.123Z,12.80
2019-01-04T05:39:43.505Z,14.75
2019-01-04T05:42:13.887Z,13.32
2019-01-04T05:44:44.295Z,12.60
2019-01-04T05:47:14.670Z,13.98
2019-01-04T05:49:45.077Z,14.80
2019-01-04T05:52:15.485Z,13.35
2019-01-04T05:54:45.881Z,13.98
2019-01-04T05:57:16.329Z,13.50
2019-01-04T05:59:46.691Z,14.13
2019-01-04T06:02:17.119Z,14.80
2019-01-04T06:04:47.616Z,12.88
2019-01-04T06:07:18.028Z,13.15
2019-01-04T06:09:48.634Z,13.43
2019-01-04T06:12:19.063Z,14.07
2019-01-04T06:14:49.447Z,13.40
2019-01-04T06:17:19.871Z,12.70
2019-01-04T06:19:50.271Z,12.43
2019-01-04T06:22:20.689Z,13.20
2019-01-04T06:24:51.162Z,14.58
2019-01-04T06:27:21.614Z,13.80
2019-01-04T06:29:52.057Z,12.75
2019-01-04T06:32:22.450Z,12.68
2019-01-04T06:34:52.863Z,14.80
2019-01-04T06:37:23.237Z,14.20
2019-01-04T06:39:53.639Z,12.68
2019-01-04T06:42:24.033Z,13.58
2019-01-04T06:44:54.490Z,12.63
2019-01-04T06:47:25.946Z,11.15
2019-01-04T06:49:56.340Z,13.15
2019-01-04T06:52:26.749Z,12.90
2019-01-04T06:55:32.377Z,13.85
2019-01-04T06:58:02.769Z,11.78
2019-01-04T07:00:33.233Z,10.75
2019-01-04T07:03:03.636Z,12.53
2019-01-04T07:05:34.160Z,11.65
2019-01-04T07:08:04.569Z,11.90
2019-01-04T07:10:34.981Z,14.28
2019-01-04T07:13:05.433Z,12.88
2019-01-04T07:15:35.827Z,15.70
2019-01-04T07:18:06.179Z,20.27
2019-01-04T07:20:36.560Z,16.73
2019-01-04T07:23:07.038Z,14.83
2019-01-04T07:25:37.446Z,14.07
2019-01-04T07:28:07.854Z,13.25
2019-01-04T07:30:38.253Z,12.98
2019-01-04T07:33:08.689Z,11.43
2019-01-04T07:35:39.120Z,13.60
2019-01-04T07:38:09.601Z,12.37
2019-01-04T07:40:41.637Z,12.33
2019-01-04T07:43:16.479Z,11.53
2019-01-04T07:45:44.148Z,11.40
2019-01-04T07:48:14.540Z,11.68
2019-01-04T07:50:44.931Z,11.50
2019-01-04T07:53:15.358Z,10.65
2019-01-04T07:55:45.762Z,11.95
2019-01-04T07:58:16.223Z,11.22
2019-01-04T08:00:46.588Z,12.45
2019-01-04T08:03:26.889Z,11.48
2019-01-04T08:06:01.929Z,12.20
2019-01-04T08:08:32.346Z,12.23
2019-01-04T08:11:02.741Z,11.95
2019-01-04T08:13:33.132Z,12.98
2019-01-04T08:16:03.560Z,11.28
2019-01-04T08:18:33.968Z,11.63
2019-01-04T08:21:04.334Z,11.53
2019-01-04T08:23:34.945Z,11.95
2019-01-04T08:26:05.353Z,12.70
2019-01-04T08:28:35.765Z,11.95
2019-01-04T08:31:06.340Z,10.72
2019-01-04T08:33:36.711Z,11.15
2019-01-04T08:36:07.103Z,11.50
2019-01-04T08:38:37.514Z,9.95
2019-01-04T08:41:07.971Z,10.65
2019-01-04T08:43:38.493Z,9.58
2019-01-04T08:46:08.877Z,9.33
2019-01-04T08:48:39.349Z,9.63
2019-01-04T08:51:09.908Z,9.60
2019-01-04T08:54:17.577Z,10.03
2019-01-04T08:56:47.978Z,9.58
2019-01-04T08:59:18.382Z,10.32
2019-01-04T09:01:50.794Z,9.70
2019-01-04T09:04:21.265Z,9.73
2019-01-04T09:06:51.654Z,12.37
2019-01-04T09:09:22.042Z,10.60
2019-01-04T09:11:52.476Z,12.10
2019-01-04T09:14:22.861Z,11.68
2019-01-04T09:16:53.315Z,9.75
2019-01-04T09:19:23.729Z,10.00
2019-01-04T09:21:54.140Z,10.35
2019-01-04T09:24:24.790Z,10.72
2019-01-04T09:26:55.240Z,10.45
2019-01-04T09:29:25.646Z,11.33
2019-01-04T09:31:56.089Z,9.93
2019-01-04T09:34:26.475Z,9.45
2019-01-04T09:36:56.872Z,11.48
2019-01-04T09:39:28.615Z,10.20
2019-01-04T09:42:13.864Z,9.85
2019-01-04T09:44:45.930Z,9.48
2019-01-04T09:47:16.457Z,8.15
2019-01-04T09:49:47.037Z,9.38
2019-01-04T09:52:17.451Z,9.15
2019-01-04T09:54:48.064Z,8.00
2019-01-04T09:57:23.430Z,10.13
2019-01-04T09:59:50.674Z,8.85
2019-01-04T10:02:21.122Z,8.20
2019-01-04T10:04:51.541Z,9.45
2019-01-04T10:07:22.085Z,8.18
2019-01-04T10:09:53.371Z,9.35
2019-01-04T10:12:25.967Z,10.30
2019-01-04T10:14:57.164Z,8.98
2019-01-04T10:17:27.632Z,8.75
2019-01-04T10:19:58.461Z,8.50
2019-01-04T10:22:28.989Z,9.15
2019-01-04T10:24:59.891Z,8.98
2019-01-04T10:27:30.376Z,8.33
2019-01-04T10:30:01.279Z,7.80
2019-01-04T10:32:32.098Z,10.78
2019-01-04T10:35:10.532Z,10.03
2019-01-04T10:37:38.264Z,7.00
2019-01-04T10:40:11.196Z,8.53
2019-01-04T10:42:41.128Z,8.90
2019-01-04T10:45:11.704Z,7.95
2019-01-04T10:47:42.328Z,7.70
2019-01-04T10:50:13.119Z,7.87
2019-01-04T10:52:43.642Z,6.97
2019-01-04T10:55:14.545Z,7.70
2019-01-04T10:57:45.393Z,8.28
2019-01-04T11:00:16.211Z,9.15
2019-01-04T11:02:47.056Z,9.65
2019-01-04T11:05:17.742Z,7.25
2019-01-04T11:07:48.670Z,8.08
2019-01-04T11:10:23.318Z,9.33
2019-01-04T11:12:53.836Z,8.73
2019-01-04T11:15:24.362Z,7.72
2019-01-04T11:17:55.149Z,7.65
2019-01-04T11:20:54.850Z,7.08
2019-01-04T11:24:14.147Z,7.72
2019-01-04T11:27:01.265Z,7.62
2019-01-04T11:30:31.183Z,7.40
2019-01-04T11:33:31.293Z,8.60
2019-01-04T11:36:50.822Z,8.58
2019-01-04T11:40:14.454Z,7.95
2019-01-04T11:43:31.775Z,7.87
2019-01-04T11:46:48.757Z,7.40
2019-01-04T11:50:24.416Z,6.03
2019-01-04T11:52:59.600Z,9.75
2019-01-04T11:55:29.998Z,7.95
2019-01-04T11:58:00.403Z,8.70
2019-01-04T12:00:30.795Z,7.28
2019-01-04T12:03:01.258Z,6.72
2019-01-04T12:05:31.651Z,5.50
2019-01-04T12:08:02.054Z,6.62
2019-01-04T12:10:32.434Z,6.35
2019-01-04T12:13:02.794Z,6.20
2019-01-04T12:15:33.167Z,5.65
2019-01-04T12:18:03.572Z,6.60
2019-01-04T12:20:34.033Z,4.92
2019-01-04T12:23:04.458Z,6.65
2019-01-04T12:25:34.875Z,5.78
2019-01-04T12:28:05.250Z,5.37
2019-01-04T12:30:35.646Z,5.55
2019-01-04T12:33:06.025Z,5.30
2019-01-04T12:35:36.390Z,5.10
2019-01-04T12:38:06.762Z,6.60
2019-01-04T12:40:37.189Z,5.65
2019-01-04T12:43:07.623Z,6.42
2019-01-04T12:45:38.094Z,6.10
2019-01-04T12:48:08.696Z,7.40
2019-01-04T12:50:39.073Z,6.95
2019-01-04T12:53:09.481Z,6.08
2019-01-04T12:55:39.879Z,6.10
2019-01-04T12:58:10.292Z,6.42
2019-01-04T13:00:40.703Z,7.00
2019-01-04T13:03:11.086Z,6.10
2019-01-04T13:05:41.505Z,6.55
2019-01-04T13:08:11.957Z,6.92
2019-01-04T13:10:42.375Z,6.30
2019-01-04T13:13:12.803Z,5.70
2019-01-04T13:15:43.213Z,6.45
2019-01-04T13:18:13.614Z,6.83
2019-01-04T13:20:44.030Z,5.50
2019-01-04T13:23:14.531Z,6.15
2019-01-04T13:25:44.947Z,6.00
2019-01-04T13:28:15.351Z,6.67
2019-01-04T13:30:45.737Z,6.75
2019-01-04T13:33:16.102Z,6.78
2019-01-04T13:35:46.478Z,6.20
2019-01-04T13:38:19.979Z,5.78
2019-01-04T13:40:48.982Z,6.75
2019-01-04T13:43:19.346Z,6.87
2019-01-04T13:45:49.714Z,6.25
2019-01-04T13:48:20.098Z,6.95
2019-01-04T13:50:50.470Z,5.85
2019-01-04T13:53:20.879Z,30.80
2019-01-04T13:55:51.282Z,10.00
2019-01-04T13:58:21.702Z,8.90
2019-01-04T14:00:52.106Z,7.75
2019-01-04T14:03:22.533Z,8.25
2019-01-04T14:05:52.930Z,7.53
2019-01-04T14:08:23.326Z,7.92
2019-01-04T14:10:53.714Z,7.55
2019-01-04T14:13:24.133Z,7.70
2019-01-04T14:15:54.577Z,8.55
2019-01-04T14:18:25.074Z,7.10
2019-01-04T14:20:55.449Z,8.43
2019-01-04T14:23:28.823Z,7.58
2019-01-04T14:25:57.952Z,8.00
2019-01-04T14:28:28.361Z,6.78
2019-01-04T14:30:58.718Z,6.78
2019-01-04T14:33:29.086Z,5.85
2019-01-04T14:35:59.441Z,6.80
2019-01-04T14:38:29.874Z,6.30
2019-01-04T14:41:00.259Z,6.75
2019-01-04T14:43:30.654Z,5.67
2019-01-04T14:46:01.017Z,6.05
2019-01-04T14:48:31.418Z,5.55
2019-01-04T14:51:01.804Z,6.35
2019-01-04T14:53:32.245Z,6.45
2019-01-04T14:56:02.702Z,6.08
2019-01-04T14:58:33.144Z,6.35
2019-01-04T15:01:03.866Z,5.37
2019-01-04T15:03:34.268Z,6.55
2019-01-04T15:06:04.641Z,7.22
2019-01-04T15:08:35.037Z,5.95
2019-01-04T15:11:05.455Z,6.08
2019-01-04T15:13:35.845Z,6.40
2019-01-04T15:16:06.262Z,5.92
2019-01-04T15:18:36.646Z,7.58
2019-01-04T15:21:07.084Z,7.05
2019-01-04T15:23:37.467Z,6.90
2019-01-04T15:26:07.833Z,7.30
2019-01-04T15:28:38.191Z,7.58
2019-01-04T15:31:08.566Z,6.92
2019-01-04T15:33:39.034Z,6.85
2019-01-04T15:36:09.503Z,6.95
2019-01-04T15:38:39.902Z,7.67
2019-01-04T15:41:10.293Z,6.80
2019-01-04T15:43:40.650Z,7.95
2019-01-04T15:46:11.041Z,6.50
2019-01-04T15:48:41.429Z,7.85
2019-01-04T15:51:11.853Z,8.48
2019-01-04T15:53:42.228Z,8.53
2019-01-04T15:56:12.642Z,7.95
2019-01-04T15:58:43.035Z,7.33
2019-01-04T16:01:13.421Z,8.55
2019-01-04T16:03:43.857Z,9.18
2019-01-04T16:06:14.229Z,9.25
2019-01-04T16:08:44.673Z,10.35
2019-01-04T16:11:15.054Z,9.80
2019-01-04T16:13:45.470Z,9.25
2019-01-04T16:16:15.834Z,10.10
2019-01-04T16:18:46.274Z,10.55
2019-01-04T16:21:16.653Z,9.88
2019-01-04T16:23:47.038Z,11.05
2019-01-04T16:26:17.418Z,10.40
2019-01-04T16:28:47.791Z,11.15
2019-01-04T16:31:18.160Z,10.25
2019-01-04T16:33:48.570Z,10.63
2019-01-04T16:36:18.964Z,11.95
2019-01-04T16:38:49.376Z,10.78
2019-01-04T16:41:19.791Z,10.95
2019-01-04T16:43:50.206Z,11.53
2019-01-04T16:46:21.704Z,11.10
2019-01-04T16:48:52.087Z,11.10
2019-01-04T16:51:22.479Z,10.23
2019-01-04T16:53:52.846Z,10.90
2019-01-04T16:56:23.237Z,10.78
2019-01-04T16:58:53.670Z,10.50
2019-01-04T17:01:24.105Z,11.33
2019-01-04T17:03:54.590Z,10.45
2019-01-04T17:06:25.079Z,10.65
2019-01-04T17:08:55.492Z,12.20
2019-01-04T17:11:25.889Z,12.40
2019-01-04T17:13:56.273Z,10.48
2019-01-04T17:16:26.653Z,11.40
2019-01-04T17:18:57.042Z,11.88
2019-01-04T17:21:27.445Z,10.50
2019-01-04T17:23:57.830Z,11.90
2019-01-04T17:26:28.237Z,11.12
2019-01-04T17:28:58.609Z,11.18
2019-01-04T17:31:29.002Z,10.25
2019-01-04T17:33:59.413Z,9.65
2019-01-04T17:36:29.995Z,8.63
2019-01-04T17:39:00.401Z,10.25
2019-01-04T17:41:30.846Z,9.78
2019-01-04T17:44:01.230Z,10.00
2019-01-04T17:46:31.679Z,10.50
2019-01-04T17:49:02.081Z,9.18
2019-01-04T17:51:32.472Z,9.60
2019-01-04T17:54:02.822Z,10.08
2019-01-04T17:56:35.544Z,9.45
2019-01-04T17:59:08.283Z,8.20
2019-01-04T18:01:38.647Z,8.48
2019-01-04T18:04:09.033Z,9.18
2019-01-04T18:06:39.570Z,7.20
2019-01-04T18:09:09.949Z,7.03
2019-01-04T18:11:40.322Z,7.28
2019-01-04T18:14:10.798Z,6.60
2019-01-04T18:16:41.226Z,5.50
2019-01-04T18:19:11.723Z,5.85
2019-01-04T18:21:42.106Z,5.53
2019-01-04T18:24:12.477Z,6.40
2019-01-04T18:26:42.917Z,5.40
2019-01-04T18:29:13.437Z,7.62
2019-01-04T18:31:43.845Z,5.55
2019-01-04T18:34:14.238Z,5.05
2019-01-04T18:36:44.658Z,6.03
2019-01-04T18:39:15.049Z,4.87
2019-01-04T18:41:45.541Z,7.37
2019-01-04T18:44:15.952Z,6.40
2019-01-04T18:46:46.345Z,7.33
2019-01-04T18:49:16.797Z,9.05
2019-01-04T18:51:47.198Z,9.38
2019-01-04T18:54:17.626Z,9.50
2019-01-04T18:56:48.089Z,8.45
2019-01-04T18:59:18.506Z,9.45
2019-01-04T19:01:48.891Z,9.03
2019-01-04T19:04:19.305Z,9.25
2019-01-04T19:06:49.715Z,9.90
2019-01-04T19:09:20.134Z,9.58
2019-01-04T19:11:50.585Z,9.88
2019-01-04T19:14:21.066Z,10.45
2019-01-04T19:16:51.477Z,9.98
2019-01-04T19:19:21.862Z,9.40
2019-01-04T19:21:52.269Z,10.38
2019-01-04T19:24:22.630Z,9.93
2019-01-04T19:26:53.044Z,10.90
2019-01-04T19:29:23.883Z,9.80
2019-01-04T19:31:54.290Z,9.60
2019-01-04T19:34:24.685Z,10.20
2019-01-04T19:36:55.119Z,11.33
2019-01-04T19:39:25.554Z,11.18
2019-01-04T19:41:56.057Z,10.82
2019-01-04T19:44:26.436Z,10.82
2019-01-04T19:46:56.853Z,10.50
2019-01-04T19:49:27.303Z,9.88
2019-01-04T19:51:57.794Z,9.78
2019-01-04T19:54:28.197Z,9.65
2019-01-04T19:56:58.673Z,9.05
2019-01-04T19:59:29.190Z,9.13
2019-01-04T20:01:59.665Z,9.48
2019-01-04T20:04:30.022Z,9.28
2019-01-04T20:08:08.306Z,11.53
2019-01-04T20:11:36.186Z,10.32
2019-01-04T20:15:30.008Z,10.75
2019-01-04T20:18:31.422Z,9.35
2019-01-04T20:21:15.551Z,9.95
2019-01-04T20:24:23.322Z,9.43
2019-01-04T20:27:11.573Z,10.03
2019-01-04T20:30:01.089Z,10.43
2019-01-04T20:32:52.523Z,10.82
2019-01-04T20:35:40.596Z,10.10
2019-01-04T20:38:22.169Z,9.98
2019-01-04T20:41:10.194Z,10.40
2019-01-04T20:44:02.402Z,10.90
2019-01-04T20:46:49.652Z,10.45
2019-01-04T20:49:34.401Z,9.30
2019-01-04T20:52:38.808Z,10.80
2019-01-04T20:55:26.743Z,10.10
2019-01-04T20:58:14.846Z,8.70
2019-01-04T21:01:01.009Z,9.93
2019-01-04T21:03:48.990Z,19.37
2019-01-04T21:06:32.568Z,13.30
2019-01-04T21:09:34.193Z,8.73
2019-01-04T21:12:31.104Z,8.58
2019-01-04T21:15:23.222Z,9.83
2019-01-04T21:18:14.222Z,10.08
2019-01-04T21:21:00.445Z,9.38
2019-01-04T21:23:44.811Z,9.98
2019-01-04T21:26:43.239Z,8.95
2019-01-04T21:29:28.769Z,9.08
2019-01-04T21:32:16.676Z,9.45
2019-01-04T21:35:21.335Z,9.38
2019-01-04T21:38:04.485Z,10.35
2019-01-04T21:40:53.813Z,9.78
2019-01-04T21:43:40.421Z,9.98
2019-01-04T21:46:41.757Z,10.30
2019-01-04T21:49:43.181Z,10.10
2019-01-04T21:52:32.519Z,9.55
2019-01-04T21:55:13.806Z,10.32
2019-01-04T21:58:10.333Z,9.95
2019-01-04T22:01:11.769Z,9.15
2019-01-04T22:04:01.115Z,9.18
2019-01-04T22:06:56.385Z,9.23
2019-01-04T22:09:51.913Z,8.73
2019-01-04T22:12:40.045Z,9.45
2019-01-04T22:15:35.258Z,8.63
2019-01-04T22:18:23.115Z,9.13
2019-01-04T22:21:15.451Z,7.83
2019-01-04T22:24:31.850Z,8.88
2019-01-04T22:27:26.326Z,8.85
2019-01-04T22:30:08.944Z,9.95
2019-01-04T22:32:56.922Z,9.10
2019-01-04T22:35:46.290Z,9.18
2019-01-04T22:38:31.813Z,7.62
2019-01-04T22:41:27.065Z,9.45
2019-01-04T22:44:22.428Z,8.35
2019-01-04T22:47:08.869Z,9.58
2019-01-04T22:50:01.257Z,9.13
2019-01-04T22:52:49.253Z,9.30
2019-01-04T22:55:47.618Z,7.53
2019-01-04T22:58:55.290Z,9.20
2019-01-04T23:01:53.812Z,8.05
2019-01-04T23:04:42.243Z,8.80
2019-01-04T23:07:44.814Z,8.05
2019-01-04T23:10:32.906Z,9.23
2019-01-04T23:13:40.373Z,9.75
2019-01-04T23:16:28.329Z,8.03
2019-01-04T23:19:29.937Z,9.10
2019-01-04T23:22:33.485Z,9.35
2019-01-04T23:25:18.050Z,8.13
2019-01-04T23:28:06.481Z,7.92
2019-01-04T23:30:55.799Z,7.40
2019-01-04T23:33:48.374Z,7.80
2019-01-04T23:36:52.780Z,7.75
2019-01-04T23:39:42.079Z,7.72
2019-01-04T23:42:31.719Z,7.70
2019-01-04T23:45:19.885Z,9.30
2019-01-04T23:48:08.169Z,8.48
2019-01-04T23:51:15.853Z,7.95
2019-01-04T23:54:04.127Z,7.47
2019-01-04T23:56:52.172Z,7.58
2019-01-04T23:59:58.642Z,8.23
